Metar Aviation Weather Data FACT

19°C Temp
14°C Dewpoint
% Humidity
Temperature
35 KM/H
22 MPH
19 KTS
180°
Due South

Wind Speed
Partly Cloudy
Conditions
Pressure 1017.92 (hPa) - 30.06 (in)
Visibility 6.2 (mi) - 10.0 (km)

Current Conditions
FACT
Metar :FACT 211700Z 18019KT 9999 FEW020 19/14 Q1018 NOSIG
Thu 21st March 19:00 pm

  Metar Aviation API Data Provided by https://www.checkwx.com/ PHP scripts by weather34.com ©2019